^^
Station Historical Data
Daily Summary for November 4, 2017 Units:  Both    English   Metric
« Previous Day
Next Day »
Daily Weekly Monthly Yearly Custom
  High: Low: Average:
Temperature: TemperatureF °F /  -17.8 °C 60.6 °F /  15.9 °C 74.5 °F /  23.6 °C
Dew Point: DewpointF °F /  -17.8 °C 47.1 °F /  8.4 °C 51.7 °F /  10.9 °C
Humidity: Humidity% 27% 48%
Wind Speed: WindSpeedMPHmph /  0km/h - 2.3mph /  3.7km/h
Wind Gust: WindSpeedGustMPHmph /  0km/h - -
Wind- - ESE
Pressure: PressureIn in /  0 hPa 29.80 in /  1009 hPa -
Precipitation: 0.00 in /  0 mm    
Historical Graphs
 
 
Tabular Data for November 4, 2017
Time Temperature Dew Point Pressure Wind Wind Speed Wind Gust Humidity Rainfall Rate (Hourly) solar Conditions
TemperatureF °F /  -17.8 °C DewpointF °F /  -17.8 °C PressureInin /  0hPa Calm     Humidity% HourlyPrecipInin /  0mm SolarRadiationWatts/m^2 W/m2 Conditions
00:01 66.6 °F /  19.2 °C 56.1 °F /  13.4 °C 29.95in /  1014.1hPa ESE 2.0mph /  3.2km/h 4.0mph /  6.4km/h 69% 0.00in /  0mm 0.0 W/m2
00:07 66.9 °F /  19.4 °C 56.5 °F /  13.6 °C 29.95in /  1014.1hPa ENE 4.0mph /  6.4km/h 7.0mph /  11.3km/h 69% 0.00in /  0mm 0.0 W/m2
00:12 67.3 °F /  19.6 °C 56.8 °F /  13.8 °C 29.95in /  1014.1hPa SSE 4.0mph /  6.4km/h 11.0mph /  17.7km/h 69% 0.00in /  0mm 0.0 W/m2
00:17 67.3 °F /  19.6 °C 56.3 °F /  13.5 °C 29.95in /  1014.1hPa ENE 6.0mph /  9.7km/h 11.0mph /  17.7km/h 68% 0.00in /  0mm 0.0 W/m2
00:22 66.9 °F /  19.4 °C 55.9 °F /  13.3 °C 29.95in /  1014.1hPa ESE 2.9mph /  4.7km/h 13.0mph /  20.9km/h 68% 0.00in /  0mm 0.0 W/m2
00:27 66.7 °F /  19.3 °C 56.3 °F /  13.5 °C 29.95in /  1014.1hPa ESE 4.9mph /  7.9km/h 9.0mph /  14.5km/h 69% 0.00in /  0mm 0.0 W/m2
00:32 66.7 °F /  19.3 °C 56.3 °F /  13.5 °C 29.95in /  1014.1hPa East 0.9mph /  1.4km/h 4.0mph /  6.4km/h 69% 0.00in /  0mm 0.0 W/m2
00:37 66.6 °F /  19.2 °C 56.5 °F /  13.6 °C 29.95in /  1014.1hPa Calm   6.0mph /  9.7km/h 70% 0.00in /  0mm 0.0 W/m2
00:42 66.6 °F /  19.2 °C 56.5 °F /  13.6 °C 29.95in /  1014.1hPa ESE 4.0mph /  6.4km/h 6.0mph /  9.7km/h 70% 0.00in /  0mm 0.0 W/m2
00:47 66.4 °F /  19.1 °C 56.3 °F /  13.5 °C 29.95in /  1014.1hPa NE 2.9mph /  4.7km/h 5.0mph /  8km/h 70% 0.00in /  0mm 0.0 W/m2
00:52 66.4 °F /  19.1 °C 56.3 °F /  13.5 °C 29.95in /  1014.1hPa ESE 4.0mph /  6.4km/h 9.0mph /  14.5km/h 70% 0.00in /  0mm 0.0 W/m2
00:58 66.4 °F /  19.1 °C 56.7 °F /  13.7 °C 29.95in /  1014.1hPa ESE 8.1mph /  13km/h 11.0mph /  17.7km/h 71% 0.00in /  0mm 0.0 W/m2
01:03 66.2 °F /  19 °C 56.8 °F /  13.8 °C 29.95in /  1014.1hPa ESE 4.9mph /  7.9km/h 9.0mph /  14.5km/h 72% 0.00in /  0mm 0.0 W/m2
01:08 65.8 °F /  18.8 °C 56.5 °F /  13.6 °C 29.95in /  1014.1hPa ESE 4.0mph /  6.4km/h 8.0mph /  12.9km/h 72% 0.00in /  0mm 0.0 W/m2
01:13 65.7 °F /  18.7 °C 56.3 °F /  13.5 °C 29.95in /  1014.1hPa ESE 4.0mph /  6.4km/h 7.0mph /  11.3km/h 72% 0.00in /  0mm 0.0 W/m2
01:18 65.7 °F /  18.7 °C 55.9 °F /  13.3 °C 29.95in /  1014.1hPa SE 4.9mph /  7.9km/h 9.0mph /  14.5km/h 71% 0.00in /  0mm 0.0 W/m2
01:23 65.7 °F /  18.7 °C 55.9 °F /  13.3 °C 29.95in /  1014.1hPa ESE 2.0mph /  3.2km/h 14.0mph /  22.5km/h 71% 0.00in /  0mm 0.0 W/m2
01:28 65.7 °F /  18.7 °C 56.3 °F /  13.5 °C 29.95in /  1014.1hPa ESE 4.9mph /  7.9km/h 11.0mph /  17.7km/h 72% 0.00in /  0mm 0.0 W/m2
01:33 65.7 °F /  18.7 °C 56.3 °F /  13.5 °C 29.95in /  1014.1hPa ESE 4.9mph /  7.9km/h 8.0mph /  12.9km/h 72% 0.00in /  0mm 0.0 W/m2
01:39 65.5 °F /  18.6 °C 55.4 °F /  13 °C 29.94in /  1013.8hPa ESE 6.0mph /  9.7km/h 11.0mph /  17.7km/h 70% 0.00in /  0mm 0.0 W/m2
01:44 65.7 °F /  18.7 °C 55.6 °F /  13.1 °C 29.94in /  1013.8hPa SE 6.9mph /  11.1km/h 12.0mph /  19.3km/h 70% 0.00in /  0mm 0.0 W/m2
01:49 65.7 °F /  18.7 °C 55.2 °F /  12.9 °C 29.95in /  1014.1hPa East 6.9mph /  11.1km/h 11.0mph /  17.7km/h 69% 0.00in /  0mm 0.0 W/m2
01:54 65.8 °F /  18.8 °C 55.0 °F /  12.8 °C 29.95in /  1014.1hPa East 4.0mph /  6.4km/h 12.0mph /  19.3km/h 68% 0.00in /  0mm 0.0 W/m2
01:59 65.7 °F /  18.7 °C 55.2 °F /  12.9 °C 29.95in /  1014.1hPa NE 8.1mph /  13km/h 13.0mph /  20.9km/h 69% 0.00in /  0mm 0.0 W/m2
02:04 65.7 °F /  18.7 °C 55.2 °F /  12.9 °C 29.95in /  1014.1hPa ESE 8.9mph /  14.3km/h 12.0mph /  19.3km/h 69% 0.00in /  0mm 0.0 W/m2
02:09 65.5 °F /  18.6 °C 55.0 °F /  12.8 °C 29.94in /  1013.8hPa ESE 6.9mph /  11.1km/h 10.0mph /  16.1km/h 69% 0.00in /  0mm 0.0 W/m2
02:14 65.3 °F /  18.5 °C 54.5 °F /  12.5 °C 29.94in /  1013.8hPa NE 0.9mph /  1.4km/h 8.0mph /  12.9km/h 68% 0.00in /  0mm 0.0 W/m2
02:19 65.1 °F /  18.4 °C 53.4 °F /  11.9 °C 29.93in /  1013.4hPa SE 2.0mph /  3.2km/h 9.0mph /  14.5km/h 66% 0.00in /  0mm 0.0 W/m2
02:24 65.3 °F /  18.5 °C 52.3 °F /  11.3 °C 29.93in /  1013.4hPa ENE 8.1mph /  13km/h 11.0mph /  17.7km/h 63% 0.00in /  0mm 0.0 W/m2
02:30 65.5 °F /  18.6 °C 52.2 °F /  11.2 °C 29.93in /  1013.4hPa Calm   10.0mph /  16.1km/h 62% 0.00in /  0mm 0.0 W/m2
02:35 65.7 °F /  18.7 °C 51.8 °F /  11 °C 29.93in /  1013.4hPa ENE 0.9mph /  1.4km/h 8.0mph /  12.9km/h 61% 0.00in /  0mm 0.0 W/m2
02:40 65.7 °F /  18.7 °C 51.4 °F /  10.8 °C 29.92in /  1013.1hPa ESE 2.9mph /  4.7km/h 11.0mph /  17.7km/h 60% 0.00in /  0mm 0.0 W/m2
02:45 65.7 °F /  18.7 °C 51.4 °F /  10.8 °C 29.92in /  1013.1hPa East 11.0mph /  17.7km/h 11.0mph /  17.7km/h 60% 0.00in /  0mm 0.0 W/m2
02:50 65.8 °F /  18.8 °C 51.1 °F /  10.6 °C 29.92in /  1013.1hPa SE 8.1mph /  13km/h 13.0mph /  20.9km/h 59% 0.00in /  0mm 0.0 W/m2
02:55 65.8 °F /  18.8 °C 50.7 °F /  10.4 °C 29.91in /  1012.8hPa SE 0.9mph /  1.4km/h 9.0mph /  14.5km/h 58% 0.00in /  0mm 0.0 W/m2
03:00 66.0 °F /  18.9 °C 50.4 °F /  10.2 °C 29.91in /  1012.8hPa ENE 6.0mph /  9.7km/h 11.0mph /  17.7km/h 57% 0.00in /  0mm 0.0 W/m2
03:05 66.2 °F /  19 °C 50.5 °F /  10.3 °C 29.91in /  1012.8hPa East 2.0mph /  3.2km/h 8.0mph /  12.9km/h 57% 0.00in /  0mm 0.0 W/m2
03:10 66.4 °F /  19.1 °C 50.7 °F /  10.4 °C 29.91in /  1012.8hPa SE 4.9mph /  7.9km/h 7.0mph /  11.3km/h 57% 0.00in /  0mm 0.0 W/m2
03:16 66.4 °F /  19.1 °C 50.7 °F /  10.4 °C 29.91in /  1012.8hPa SE 6.0mph /  9.7km/h 8.0mph /  12.9km/h 57% 0.00in /  0mm 0.0 W/m2
03:21 66.4 °F /  19.1 °C 50.7 °F /  10.4 °C 29.90in /  1012.4hPa ENE 6.0mph /  9.7km/h 8.0mph /  12.9km/h 57% 0.00in /  0mm 0.0 W/m2
03:26 66.4 °F /  19.1 °C 50.2 °F /  10.1 °C 29.90in /  1012.4hPa SE 2.9mph /  4.7km/h 7.0mph /  11.3km/h 56% 0.00in /  0mm 0.0 W/m2
03:31 66.4 °F /  19.1 °C 49.6 °F /  9.8 °C 29.89in /  1012.1hPa Calm   7.0mph /  11.3km/h 55% 0.00in /  0mm 0.0 W/m2
03:36 66.4 °F /  19.1 °C 50.2 °F /  10.1 °C 29.89in /  1012.1hPa Calm   3.0mph /  4.8km/h 56% 0.00in /  0mm 0.0 W/m2
03:41 66.4 °F /  19.1 °C 50.7 °F /  10.4 °C 29.89in /  1012.1hPa Calm   3.0mph /  4.8km/h 57% 0.00in /  0mm 0.0 W/m2
03:46 66.2 °F /  19 °C 50.5 °F /  10.3 °C 29.89in /  1012.1hPa ESE 2.9mph /  4.7km/h 7.0mph /  11.3km/h 57% 0.00in /  0mm 0.0 W/m2
03:51 66.0 °F /  18.9 °C 50.9 °F /  10.5 °C 29.88in /  1011.7hPa Calm   1.0mph /  1.6km/h 58% 0.00in /  0mm 0.0 W/m2
03:56 65.8 °F /  18.8 °C 50.7 °F /  10.4 °C 29.88in /  1011.7hPa NE 0.9mph /  1.4km/h 3.0mph /  4.8km/h 58% 0.00in /  0mm 0.0 W/m2
04:02 65.8 °F /  18.8 °C 51.1 °F /  10.6 °C 29.88in /  1011.7hPa Calm   3.0mph /  4.8km/h 59% 0.00in /  0mm 0.0 W/m2
04:07 65.7 °F /  18.7 °C 51.4 °F /  10.8 °C 29.88in /  1011.7hPa Calm   1.0mph /  1.6km/h 60% 0.00in /  0mm 0.0 W/m2
04:12 65.5 °F /  18.6 °C 52.2 °F /  11.2 °C 29.87in /  1011.4hPa Calm   1.0mph /  1.6km/h 62% 0.00in /  0mm 0.0 W/m2
04:17 65.3 °F /  18.5 °C 52.0 °F /  11.1 °C 29.87in /  1011.4hPa Calm   1.0mph /  1.6km/h 62% 0.00in /  0mm 0.0 W/m2
04:22 65.1 °F /  18.4 °C 52.2 °F /  11.2 °C 29.87in /  1011.4hPa Calm     63% 0.00in /  0mm 0.0 W/m2
04:27 64.9 °F /  18.3 °C 52.5 °F /  11.4 °C 29.87in /  1011.4hPa Calm     64% 0.00in /  0mm 0.0 W/m2
04:32 64.8 °F /  18.2 °C 52.7 °F /  11.5 °C 29.86in /  1011.1hPa Calm     65% 0.00in /  0mm 0.0 W/m2
04:37 64.6 °F /  18.1 °C 52.9 °F /  11.6 °C 29.87in /  1011.4hPa Calm     66% 0.00in /  0mm 0.0 W/m2
04:42 64.2 °F /  17.9 °C 52.7 °F /  11.5 °C 29.87in /  1011.4hPa Calm   1.0mph /  1.6km/h 66% 0.00in /  0mm 0.0 W/m2
04:48 63.9 °F /  17.7 °C 52.3 °F /  11.3 °C 29.87in /  1011.4hPa Calm     66% 0.00in /  0mm 0.0 W/m2
04:53 63.7 °F /  17.6 °C 52.9 °F /  11.6 °C 29.88in /  1011.7hPa Calm   1.0mph /  1.6km/h 68% 0.00in /  0mm 0.0 W/m2
04:58 63.5 °F /  17.5 °C 52.7 °F /  11.5 °C 29.88in /  1011.7hPa Calm     68% 0.00in /  0mm 0.0 W/m2
05:03 63.3 °F /  17.4 °C 53.1 °F /  11.7 °C 29.88in /  1011.7hPa Calm   1.0mph /  1.6km/h 69% 0.00in /  0mm 0.0 W/m2
05:08 63.1 °F /  17.3 °C 53.2 °F /  11.8 °C 29.88in /  1011.7hPa Calm     70% 0.00in /  0mm 0.0 W/m2
05:13 63.0 °F /  17.2 °C 53.4 °F /  11.9 °C 29.89in /  1012.1hPa Calm     71% 0.00in /  0mm 0.0 W/m2
05:20 62.4 °F /  16.9 °C 52.9 °F /  11.6 °C 29.89in /  1012.1hPa Calm     71% 0.00in /  0mm 0.0 W/m2
05:25 62.2 °F /  16.8 °C 52.3 °F /  11.3 °C 29.90in /  1012.4hPa Calm   1.0mph /  1.6km/h 70% 0.00in /  0mm 0.0 W/m2
05:30 62.2 °F /  16.8 °C 52.7 °F /  11.5 °C 29.90in /  1012.4hPa ENE 2.0mph /  3.2km/h 3.0mph /  4.8km/h 71% 0.00in /  0mm 0.0 W/m2
05:34 62.1 °F /  16.7 °C 52.9 °F /  11.6 °C 29.90in /  1012.4hPa Calm   3.0mph /  4.8km/h 72% 0.00in /  0mm 0.0 W/m2
05:40 62.1 °F /  16.7 °C 52.9 °F /  11.6 °C 29.90in /  1012.4hPa Calm   2.0mph /  3.2km/h 72% 0.00in /  0mm 0.0 W/m2
05:45 61.9 °F /  16.6 °C 52.7 °F /  11.5 °C 29.90in /  1012.4hPa Calm     72% 0.00in /  0mm 0.0 W/m2
05:49 61.9 °F /  16.6 °C 52.7 °F /  11.5 °C 29.91in /  1012.8hPa Calm     72% 0.00in /  0mm 0.0 W/m2
05:54 61.5 °F /  16.4 °C 52.7 °F /  11.5 °C 29.91in /  1012.8hPa Calm     73% 0.00in /  0mm 0.0 W/m2
05:59 61.5 °F /  16.4 °C 52.7 °F /  11.5 °C 29.91in /  1012.8hPa Calm     73% 0.00in /  0mm 0.0 W/m2
06:04 61.3 °F /  16.3 °C 53.1 °F /  11.7 °C 29.91in /  1012.8hPa Calm     74% 0.00in /  0mm 0.0 W/m2
06:09 61.2 °F /  16.2 °C 52.9 °F /  11.6 °C 29.91in /  1012.8hPa Calm     74% 0.00in /  0mm 0.0 W/m2
06:15 61.2 °F /  16.2 °C 52.9 °F /  11.6 °C 29.91in /  1012.8hPa Calm     74% 0.00in /  0mm 5.0 W/m2
06:20 61.0 °F /  16.1 °C 52.7 °F /  11.5 °C 29.91in /  1012.8hPa Calm     74% 0.00in /  0mm 9.0 W/m2
06:25 61.0 °F /  16.1 °C 53.1 °F /  11.7 °C 29.91in /  1012.8hPa Calm     75% 0.00in /  0mm 14.0 W/m2
06:30 60.8 °F /  16 °C 52.9 °F /  11.6 °C 29.92in /  1013.1hPa Calm     75% 0.00in /  0mm 21.0 W/m2
06:35 60.6 °F /  15.9 °C 52.7 °F /  11.5 °C 29.92in /  1013.1hPa Calm     75% 0.00in /  0mm 32.0 W/m2
06:36 60.6 °F /  15.9 °C 52.7 °F /  11.5 °C 29.92in /  1013.1hPa Calm     75% 0.00in /  0mm 35.0 W/m2
06:41 60.6 °F /  15.9 °C 52.7 °F /  11.5 °C 29.92in /  1013.1hPa Calm     75% 0.00in /  0mm 44.0 W/m2
06:46 60.8 °F /  16 °C 52.9 °F /  11.6 °C 29.92in /  1013.1hPa Calm     75% 0.00in /  0mm 54.0 W/m2
06:51 61.0 °F /  16.1 °C 53.1 °F /  11.7 °C 29.93in /  1013.4hPa Calm     75% 0.00in /  0mm 60.0 W/m2
06:57 61.2 °F /  16.2 °C 54.0 °F /  12.2 °C 29.93in /  1013.4hPa Calm   1.0mph /  1.6km/h 77% 0.00in /  0mm 62.0 W/m2
07:03 61.3 °F /  16.3 °C 53.8 °F /  12.1 °C 29.93in /  1013.4hPa Calm   2.0mph /  3.2km/h 76% 0.00in /  0mm 62.0 W/m2
07:08 61.5 °F /  16.4 °C 53.6 °F /  12 °C 29.93in /  1013.4hPa Calm     75% 0.00in /  0mm 63.0 W/m2
07:13 61.9 °F /  16.6 °C 53.4 °F /  11.9 °C 29.93in /  1013.4hPa Calm   1.0mph /  1.6km/h 74% 0.00in /  0mm 69.0 W/m2
07:18 62.2 °F /  16.8 °C 53.8 °F /  12.1 °C 29.93in /  1013.4hPa Calm   2.0mph /  3.2km/h 74% 0.00in /  0mm 77.0 W/m2
07:23 62.8 °F /  17.1 °C 54.0 °F /  12.2 °C 29.93in /  1013.4hPa Calm     73% 0.00in /  0mm 91.0 W/m2
07:28 63.1 °F /  17.3 °C 54.7 °F /  12.6 °C 29.93in /  1013.4hPa Calm   2.0mph /  3.2km/h 74% 0.00in /  0mm 107.0 W/m2
07:33 63.7 °F /  17.6 °C 53.2 °F /  11.8 °C 29.93in /  1013.4hPa SE 2.0mph /  3.2km/h 2.0mph /  3.2km/h 69% 0.00in /  0mm 125.0 W/m2
07:38 64.8 °F /  18.2 °C 53.1 °F /  11.7 °C 29.93in /  1013.4hPa SSE 2.0mph /  3.2km/h 2.0mph /  3.2km/h 66% 0.00in /  0mm 125.0 W/m2
07:44 65.8 °F /  18.8 °C 52.5 °F /  11.4 °C 29.93in /  1013.4hPa SSE 2.0mph /  3.2km/h 4.0mph /  6.4km/h 62% 0.00in /  0mm 123.0 W/m2
07:49 67.1 °F /  19.5 °C 52.3 °F /  11.3 °C 29.93in /  1013.4hPa East 0.9mph /  1.4km/h 4.0mph /  6.4km/h 59% 0.00in /  0mm 91.0 W/m2
07:54 68.2 °F /  20.1 °C 53.2 °F /  11.8 °C 29.93in /  1013.4hPa ESE 0.9mph /  1.4km/h 3.0mph /  4.8km/h 59% 0.00in /  0mm 90.0 W/m2
07:59 68.7 °F /  20.4 °C 53.4 °F /  11.9 °C 29.93in /  1013.4hPa SSW 0.9mph /  1.4km/h 2.0mph /  3.2km/h 58% 0.00in /  0mm 120.0 W/m2
08:04 69.3 °F /  20.7 °C 52.3 °F /  11.3 °C 29.93in /  1013.4hPa SE 4.9mph /  7.9km/h 5.0mph /  8km/h 55% 0.00in /  0mm 230.0 W/m2
08:09 69.6 °F /  20.9 °C 52.2 °F /  11.2 °C 29.93in /  1013.4hPa SE 4.0mph /  6.4km/h 6.0mph /  9.7km/h 54% 0.00in /  0mm 253.0 W/m2
08:14 70.0 °F /  21.1 °C 53.1 °F /  11.7 °C 29.93in /  1013.4hPa Calm   2.0mph /  3.2km/h 55% 0.00in /  0mm 91.0 W/m2
08:20 70.2 °F /  21.2 °C 53.8 °F /  12.1 °C 29.93in /  1013.4hPa Calm   1.0mph /  1.6km/h 56% 0.00in /  0mm 183.0 W/m2
08:25 70.2 °F /  21.2 °C 53.8 °F /  12.1 °C 29.93in /  1013.4hPa Calm     56% 0.00in /  0mm 385.0 W/m2
08:30 70.5 °F /  21.4 °C 53.1 °F /  11.7 °C 29.93in /  1013.4hPa Calm   1.0mph /  1.6km/h 54% 0.00in /  0mm 536.0 W/m2
08:35 71.2 °F /  21.8 °C 53.8 °F /  12.1 °C 29.93in /  1013.4hPa Calm     54% 0.00in /  0mm 540.0 W/m2
08:41 72.7 °F /  22.6 °C 51.8 °F /  11 °C 29.93in /  1013.4hPa ENE 4.0mph /  6.4km/h 5.0mph /  8km/h 48% 0.00in /  0mm 559.0 W/m2
08:46 73.9 °F /  23.3 °C 51.3 °F /  10.7 °C 29.93in /  1013.4hPa ESE 2.9mph /  4.7km/h 6.0mph /  9.7km/h 45% 0.00in /  0mm 606.0 W/m2
08:51 75.4 °F /  24.1 °C 51.3 °F /  10.7 °C 29.93in /  1013.4hPa ESE 2.9mph /  4.7km/h 4.0mph /  6.4km/h 43% 0.00in /  0mm 629.0 W/m2
08:56 76.5 °F /  24.7 °C 51.1 °F /  10.6 °C 29.93in /  1013.4hPa ESE 0.9mph /  1.4km/h 5.0mph /  8km/h 41% 0.00in /  0mm 657.0 W/m2
09:01 77.4 °F /  25.2 °C 51.1 °F /  10.6 °C 29.93in /  1013.4hPa Calm   5.0mph /  8km/h 40% 0.00in /  0mm 671.0 W/m2
09:06 77.7 °F /  25.4 °C 51.4 °F /  10.8 °C 29.94in /  1013.8hPa East 2.0mph /  3.2km/h 5.0mph /  8km/h 40% 0.00in /  0mm 691.0 W/m2
09:11 78.4 °F /  25.8 °C 51.4 °F /  10.8 °C 29.94in /  1013.8hPa ESE 6.0mph /  9.7km/h 7.0mph /  11.3km/h 39% 0.00in /  0mm 700.0 W/m2
09:16 78.6 °F /  25.9 °C 50.9 °F /  10.5 °C 29.94in /  1013.8hPa East 4.0mph /  6.4km/h 9.0mph /  14.5km/h 38% 0.00in /  0mm 707.0 W/m2
09:21 78.4 °F /  25.8 °C 51.4 °F /  10.8 °C 29.94in /  1013.8hPa SE 6.9mph /  11.1km/h 7.0mph /  11.3km/h 39% 0.00in /  0mm 737.0 W/m2
09:26 78.4 °F /  25.8 °C 51.4 °F /  10.8 °C 29.94in /  1013.8hPa SE 2.9mph /  4.7km/h 6.0mph /  9.7km/h 39% 0.00in /  0mm 737.0 W/m2
09:32 78.6 °F /  25.9 °C 51.6 °F /  10.9 °C 29.94in /  1013.8hPa East 4.9mph /  7.9km/h 6.0mph /  9.7km/h 39% 0.00in /  0mm 728.0 W/m2
09:37 79.0 °F /  26.1 °C 52.0 °F /  11.1 °C 29.94in /  1013.8hPa NNE 4.9mph /  7.9km/h 5.0mph /  8km/h 39% 0.00in /  0mm 721.0 W/m2
09:42 79.5 °F /  26.4 °C 50.9 °F /  10.5 °C 29.94in /  1013.8hPa NNE 4.0mph /  6.4km/h 5.0mph /  8km/h 37% 0.00in /  0mm 779.0 W/m2
09:47 80.2 °F /  26.8 °C 50.2 °F /  10.1 °C 29.93in /  1013.4hPa NE 6.0mph /  9.7km/h 9.0mph /  14.5km/h 35% 0.00in /  0mm 803.0 W/m2
09:52 80.8 °F /  27.1 °C 51.3 °F /  10.7 °C 29.94in /  1013.8hPa NNE 4.0mph /  6.4km/h 4.0mph /  6.4km/h 36% 0.00in /  0mm 821.0 W/m2
09:57 81.1 °F /  27.3 °C 50.2 °F /  10.1 °C 29.94in /  1013.8hPa NNW 2.0mph /  3.2km/h 8.0mph /  12.9km/h 34% 0.00in /  0mm 833.0 W/m2
10:02 81.7 °F /  27.6 °C 49.8 °F /  9.9 °C 29.94in /  1013.8hPa ENE 2.0mph /  3.2km/h 12.0mph /  19.3km/h 33% 0.00in /  0mm 849.0 W/m2
10:07 81.9 °F /  27.7 °C 50.0 °F /  10 °C 29.94in /  1013.8hPa SSE 0.9mph /  1.4km/h 8.0mph /  12.9km/h 33% 0.00in /  0mm 863.0 W/m2
10:13 82.2 °F /  27.9 °C 50.2 °F /  10.1 °C 29.93in /  1013.4hPa NNE 2.9mph /  4.7km/h 8.0mph /  12.9km/h 33% 0.00in /  0mm 861.0 W/m2
10:19 82.8 °F /  28.2 °C 50.7 °F /  10.4 °C 29.94in /  1013.8hPa South 2.0mph /  3.2km/h 11.0mph /  17.7km/h 33% 0.00in /  0mm 744.0 W/m2
10:25 82.6 °F /  28.1 °C 50.5 °F /  10.3 °C 29.94in /  1013.8hPa NE 6.0mph /  9.7km/h 10.0mph /  16.1km/h 33% 0.00in /  0mm 842.0 W/m2
10:30 82.2 °F /  27.9 °C 51.1 °F /  10.6 °C 29.94in /  1013.8hPa NNE 2.0mph /  3.2km/h 12.0mph /  19.3km/h 34% 0.00in /  0mm 708.0 W/m2
10:35 82.0 °F /  27.8 °C 52.5 °F /  11.4 °C 29.94in /  1013.8hPa ESE 4.9mph /  7.9km/h 8.0mph /  12.9km/h 36% 0.00in /  0mm 686.0 W/m2
10:40 81.7 °F /  27.6 °C 52.9 °F /  11.6 °C 29.94in /  1013.8hPa ENE 2.9mph /  4.7km/h 13.0mph /  20.9km/h 37% 0.00in /  0mm 684.0 W/m2
10:45 81.3 °F /  27.4 °C 52.5 °F /  11.4 °C 29.94in /  1013.8hPa East 0.9mph /  1.4km/h 8.0mph /  12.9km/h 37% 0.00in /  0mm 907.0 W/m2
10:50 81.3 °F /  27.4 °C 54.0 °F /  12.2 °C 29.94in /  1013.8hPa East 6.9mph /  11.1km/h 13.0mph /  20.9km/h 39% 0.00in /  0mm 962.0 W/m2
10:55 81.7 °F /  27.6 °C 52.9 °F /  11.6 °C 29.94in /  1013.8hPa ENE 2.9mph /  4.7km/h 7.0mph /  11.3km/h 37% 0.00in /  0mm 895.0 W/m2
11:00 81.9 °F /  27.7 °C 52.3 °F /  11.3 °C 29.94in /  1013.8hPa ENE 4.9mph /  7.9km/h 8.0mph /  12.9km/h 36% 0.00in /  0mm 983.0 W/m2
11:05 81.9 °F /  27.7 °C 52.3 °F /  11.3 °C 29.94in /  1013.8hPa SE 4.9mph /  7.9km/h 13.0mph /  20.9km/h 36% 0.00in /  0mm 874.0 W/m2
11:10 82.0 °F /  27.8 °C 52.5 °F /  11.4 °C 29.93in /  1013.4hPa ENE 0.9mph /  1.4km/h 13.0mph /  20.9km/h 36% 0.00in /  0mm 972.0 W/m2
11:15 82.6 °F /  28.1 °C 52.2 °F /  11.2 °C 29.93in /  1013.4hPa ENE 0.9mph /  1.4km/h 12.0mph /  19.3km/h 35% 0.00in /  0mm 963.0 W/m2
11:21 82.9 °F /  28.3 °C 53.2 °F /  11.8 °C 29.93in /  1013.4hPa SE 2.0mph /  3.2km/h 4.0mph /  6.4km/h 36% 0.00in /  0mm 998.0 W/m2
11:26 83.5 °F /  28.6 °C 52.2 °F /  11.2 °C 29.93in /  1013.4hPa SSE 8.9mph /  14.3km/h 10.0mph /  16.1km/h 34% 0.00in /  0mm 1013.0 W/m2
11:31 83.5 °F /  28.6 °C 52.2 °F /  11.2 °C 29.93in /  1013.4hPa NE 8.9mph /  14.3km/h 9.0mph /  14.5km/h 34% 0.00in /  0mm 1016.0 W/m2
11:41 83.7 °F /  28.7 °C 52.3 °F /  11.3 °C 29.93in /  1013.4hPa ENE 2.9mph /  4.7km/h 8.0mph /  12.9km/h 34% 0.00in /  0mm 1023.0 W/m2
11:46 83.8 °F /  28.8 °C 52.5 °F /  11.4 °C 29.93in /  1013.4hPa NE 0.9mph /  1.4km/h 7.0mph /  11.3km/h 34% 0.00in /  0mm 990.0 W/m2
11:51 84.2 °F /  29 °C 53.6 °F /  12 °C 29.93in /  1013.4hPa ESE 8.1mph /  13km/h 11.0mph /  17.7km/h 35% 0.00in /  0mm 1021.0 W/m2
11:57 84.4 °F /  29.1 °C 52.9 °F /  11.6 °C 29.92in /  1013.1hPa SE 10.1mph /  16.3km/h 10.1mph /  16.3km/h 34% 0.00in /  0mm 1028.0 W/m2
12:02 84.4 °F /  29.1 °C 53.8 °F /  12.1 °C 29.92in /  1013.1hPa North 8.9mph /  14.3km/h 10.0mph /  16.1km/h 35% 0.00in /  0mm 1027.0 W/m2
12:07 84.4 °F /  29.1 °C 52.2 °F /  11.2 °C 29.92in /  1013.1hPa East 4.9mph /  7.9km/h 10.0mph /  16.1km/h 33% 0.00in /  0mm 1018.0 W/m2
12:12 84.7 °F /  29.3 °C 51.6 °F /  10.9 °C 29.91in /  1012.8hPa ENE 12.1mph /  19.5km/h 16.0mph /  25.7km/h 32% 0.00in /  0mm 1030.0 W/m2
12:17 85.3 °F /  29.6 °C 50.4 °F /  10.2 °C 29.91in /  1012.8hPa North 8.9mph /  14.3km/h 11.0mph /  17.7km/h 30% 0.00in /  0mm 1004.0 W/m2
12:22 85.5 °F /  29.7 °C 50.5 °F /  10.3 °C 29.91in /  1012.8hPa ESE 4.9mph /  7.9km/h 8.0mph /  12.9km/h 30% 0.00in /  0mm 991.0 W/m2
12:27 85.3 °F /  29.6 °C 51.3 °F /  10.7 °C 29.91in /  1012.8hPa ENE 6.9mph /  11.1km/h 14.0mph /  22.5km/h 31% 0.00in /  0mm 1013.0 W/m2
12:32 85.3 °F /  29.6 °C 52.2 °F /  11.2 °C 29.91in /  1012.8hPa East 6.9mph /  11.1km/h 10.0mph /  16.1km/h 32% 0.00in /  0mm 879.0 W/m2
12:37 85.1 °F /  29.5 °C 51.1 °F /  10.6 °C 29.91in /  1012.8hPa East 2.0mph /  3.2km/h 17.0mph /  27.4km/h 31% 0.00in /  0mm 1034.0 W/m2
12:47 85.5 °F /  29.7 °C 51.4 °F /  10.8 °C 29.90in /  1012.4hPa North 4.9mph /  7.9km/h 10.0mph /  16.1km/h 31% 0.00in /  0mm 1048.0 W/m2
12:53 86.0 °F /  30 °C 50.9 °F /  10.5 °C 29.90in /  1012.4hPa ESE 6.0mph /  9.7km/h 8.0mph /  12.9km/h 30% 0.00in /  0mm 1041.0 W/m2
12:58 86.2 °F /  30.1 °C 51.1 °F /  10.6 °C 29.90in /  1012.4hPa ENE 6.0mph /  9.7km/h 7.0mph /  11.3km/h 30% 0.00in /  0mm 1041.0 W/m2
13:03 86.5 °F /  30.3 °C 50.5 °F /  10.3 °C 29.89in /  1012.1hPa ENE 6.0mph /  9.7km/h 10.0mph /  16.1km/h 29% 0.00in /  0mm 1042.0 W/m2
13:08 86.5 °F /  30.3 °C 50.5 °F /  10.3 °C 29.89in /  1012.1hPa NNW 6.9mph /  11.1km/h 9.0mph /  14.5km/h 29% 0.00in /  0mm 1053.0 W/m2
13:13 86.7 °F /  30.4 °C 50.7 °F /  10.4 °C 29.89in /  1012.1hPa NE 6.0mph /  9.7km/h 13.0mph /  20.9km/h 29% 0.00in /  0mm 1020.0 W/m2
13:18 86.7 °F /  30.4 °C 50.7 °F /  10.4 °C 29.89in /  1012.1hPa SE 4.9mph /  7.9km/h 8.0mph /  12.9km/h 29% 0.00in /  0mm 1034.0 W/m2
13:23 87.1 °F /  30.6 °C 51.8 °F /  11 °C 29.89in /  1012.1hPa East 4.9mph /  7.9km/h 7.0mph /  11.3km/h 30% 0.00in /  0mm 1028.0 W/m2
13:28 87.4 °F /  30.8 °C 51.3 °F /  10.7 °C 29.89in /  1012.1hPa NE 6.0mph /  9.7km/h 11.0mph /  17.7km/h 29% 0.00in /  0mm 986.0 W/m2
13:34 87.4 °F /  30.8 °C 51.3 °F /  10.7 °C 29.88in /  1011.7hPa ENE 2.9mph /  4.7km/h 6.0mph /  9.7km/h 29% 0.00in /  0mm 932.0 W/m2
13:39 87.3 °F /  30.7 °C 51.1 °F /  10.6 °C 29.88in /  1011.7hPa West 0.9mph /  1.4km/h 6.0mph /  9.7km/h 29% 0.00in /  0mm 977.0 W/m2
13:44 87.3 °F /  30.7 °C 52.0 °F /  11.1 °C 29.88in /  1011.7hPa NNW 2.0mph /  3.2km/h 8.0mph /  12.9km/h 30% 0.00in /  0mm 990.0 W/m2
13:49 87.6 °F /  30.9 °C 52.3 °F /  11.3 °C 29.88in /  1011.7hPa ESE 0.9mph /  1.4km/h 6.0mph /  9.7km/h 30% 0.00in /  0mm 990.0 W/m2
13:54 88.2 °F /  31.2 °C 52.0 °F /  11.1 °C 29.88in /  1011.7hPa NE 2.9mph /  4.7km/h 8.0mph /  12.9km/h 29% 0.00in /  0mm 1021.0 W/m2
13:59 88.3 °F /  31.3 °C 50.2 °F /  10.1 °C 29.87in /  1011.4hPa SW 2.0mph /  3.2km/h 2.0mph /  3.2km/h 27% 0.00in /  0mm 1060.0 W/m2
14:04 88.3 °F /  31.3 °C 51.1 °F /  10.6 °C 29.87in /  1011.4hPa North 2.0mph /  3.2km/h 9.0mph /  14.5km/h 28% 0.00in /  0mm 1069.0 W/m2
14:09 88.5 °F /  31.4 °C 51.3 °F /  10.7 °C 29.86in /  1011.1hPa NE 6.9mph /  11.1km/h 8.0mph /  12.9km/h 28% 0.00in /  0mm 1100.0 W/m2
14:14 88.5 °F /  31.4 °C 51.3 °F /  10.7 °C 29.86in /  1011.1hPa ENE 4.9mph /  7.9km/h 6.0mph /  9.7km/h 28% 0.00in /  0mm 1099.0 W/m2
14:19 88.5 °F /  31.4 °C 51.3 °F /  10.7 °C 29.86in /  1011.1hPa NNW 2.0mph /  3.2km/h 4.0mph /  6.4km/h 28% 0.00in /  0mm 295.0 W/m2
14:25 88.5 °F /  31.4 °C 52.2 °F /  11.2 °C 29.85in /  1010.7hPa North 4.0mph /  6.4km/h 5.0mph /  8km/h 29% 0.00in /  0mm 1088.0 W/m2
14:30 88.5 °F /  31.4 °C 51.3 °F /  10.7 °C 29.86in /  1011.1hPa ESE 2.0mph /  3.2km/h 8.0mph /  12.9km/h 28% 0.00in /  0mm 1120.0 W/m2
14:35 88.0 °F /  31.1 °C 51.8 °F /  11 °C 29.86in /  1011.1hPa SE 4.9mph /  7.9km/h 6.0mph /  9.7km/h 29% 0.00in /  0mm 294.0 W/m2
14:40 87.6 °F /  30.9 °C 52.3 °F /  11.3 °C 29.85in /  1010.7hPa ENE 0.9mph /  1.4km/h 4.0mph /  6.4km/h 30% 0.00in /  0mm 364.0 W/m2
14:45 87.6 °F /  30.9 °C 52.3 °F /  11.3 °C 29.85in /  1010.7hPa East 4.0mph /  6.4km/h 7.0mph /  11.3km/h 30% 0.00in /  0mm 1014.0 W/m2
14:50 87.4 °F /  30.8 °C 51.3 °F /  10.7 °C 29.85in /  1010.7hPa ESE 2.9mph /  4.7km/h 6.0mph /  9.7km/h 29% 0.00in /  0mm 998.0 W/m2
14:55 87.6 °F /  30.9 °C 51.4 °F /  10.8 °C 29.85in /  1010.7hPa ESE 8.1mph /  13km/h 8.1mph /  13km/h 29% 0.00in /  0mm 947.0 W/m2
15:00 88.0 °F /  31.1 °C 51.8 °F /  11 °C 29.85in /  1010.7hPa East 2.0mph /  3.2km/h 7.0mph /  11.3km/h 29% 0.00in /  0mm 891.0 W/m2
15:06 88.7 °F /  31.5 °C 52.3 °F /  11.3 °C 29.84in /  1010.4hPa ESE 6.9mph /  11.1km/h 9.0mph /  14.5km/h 29% 0.00in /  0mm 837.0 W/m2
15:11 88.9 °F /  31.6 °C 52.5 °F /  11.4 °C 29.84in /  1010.4hPa ENE 4.0mph /  6.4km/h 8.0mph /  12.9km/h 29% 0.00in /  0mm 237.0 W/m2
15:16 88.3 °F /  31.3 °C 51.1 °F /  10.6 °C 29.84in /  1010.4hPa NNW 0.9mph /  1.4km/h 9.0mph /  14.5km/h 28% 0.00in /  0mm 315.0 W/m2
15:21 88.2 °F /  31.2 °C 50.9 °F /  10.5 °C 29.84in /  1010.4hPa NNE 4.0mph /  6.4km/h 7.0mph /  11.3km/h 28% 0.00in /  0mm 234.0 W/m2
15:26 88.0 °F /  31.1 °C 51.8 °F /  11 °C 29.84in /  1010.4hPa Calm   6.0mph /  9.7km/h 29% 0.00in /  0mm 178.0 W/m2
15:31 87.6 °F /  30.9 °C 50.5 °F /  10.3 °C 29.84in /  1010.4hPa SE 2.0mph /  3.2km/h 4.0mph /  6.4km/h 28% 0.00in /  0mm 163.0 W/m2
15:37 87.1 °F /  30.6 °C 50.9 °F /  10.5 °C 29.83in /  1010hPa SE 8.1mph /  13km/h 8.1mph /  13km/h 29% 0.00in /  0mm 149.0 W/m2
15:42 86.4 °F /  30.2 °C 50.4 °F /  10.2 °C 29.83in /  1010hPa ENE 4.9mph /  7.9km/h 11.0mph /  17.7km/h 29% 0.00in /  0mm 127.0 W/m2
15:48 85.8 °F /  29.9 °C 50.7 °F /  10.4 °C 29.83in /  1010hPa ESE 4.9mph /  7.9km/h 5.0mph /  8km/h 30% 0.00in /  0mm 114.0 W/m2
15:53 85.5 °F /  29.7 °C 48.6 °F /  9.2 °C 29.83in /  1010hPa Calm   1.0mph /  1.6km/h 28% 0.00in /  0mm 113.0 W/m2
15:58 84.9 °F /  29.4 °C 50.0 °F /  10 °C 29.83in /  1010hPa North 2.0mph /  3.2km/h 4.0mph /  6.4km/h 30% 0.00in /  0mm 123.0 W/m2
16:04 84.7 °F /  29.3 °C 50.7 °F /  10.4 °C 29.83in /  1010hPa Calm   4.0mph /  6.4km/h 31% 0.00in /  0mm 141.0 W/m2
16:09 84.7 °F /  29.3 °C 49.8 °F /  9.9 °C 29.82in /  1009.7hPa East 4.0mph /  6.4km/h 4.0mph /  6.4km/h 30% 0.00in /  0mm 135.0 W/m2
16:15 84.7 °F /  29.3 °C 49.8 °F /  9.9 °C 29.82in /  1009.7hPa East 6.9mph /  11.1km/h 7.0mph /  11.3km/h 30% 0.00in /  0mm 104.0 W/m2
16:20 84.6 °F /  29.2 °C 50.5 °F /  10.3 °C 29.82in /  1009.7hPa Calm   7.0mph /  11.3km/h 31% 0.00in /  0mm 79.0 W/m2
16:25 84.2 °F /  29 °C 50.4 °F /  10.2 °C 29.82in /  1009.7hPa ENE 2.9mph /  4.7km/h 4.0mph /  6.4km/h 31% 0.00in /  0mm 105.0 W/m2
16:30 84.0 °F /  28.9 °C 50.2 °F /  10.1 °C 29.82in /  1009.7hPa ESE 2.0mph /  3.2km/h 5.0mph /  8km/h 31% 0.00in /  0mm 269.0 W/m2
16:35 84.4 °F /  29.1 °C 50.4 °F /  10.2 °C 29.82in /  1009.7hPa ENE 4.0mph /  6.4km/h 11.0mph /  17.7km/h 31% 0.00in /  0mm 116.0 W/m2
16:41 84.4 °F /  29.1 °C 51.3 °F /  10.7 °C 29.81in /  1009.4hPa NE 6.9mph /  11.1km/h 7.0mph /  11.3km/h 32% 0.00in /  0mm 116.0 W/m2
16:46 84.0 °F /  28.9 °C 49.3 °F /  9.6 °C 29.81in /  1009.4hPa NNE 2.9mph /  4.7km/h 7.0mph /  11.3km/h 30% 0.00in /  0mm 178.0 W/m2
16:51 84.2 °F /  29 °C 49.5 °F /  9.7 °C 29.81in /  1009.4hPa East 0.9mph /  1.4km/h 5.0mph /  8km/h 30% 0.00in /  0mm 394.0 W/m2
16:57 84.7 °F /  29.3 °C 48.9 °F /  9.4 °C 29.81in /  1009.4hPa Calm   3.0mph /  4.8km/h 29% 0.00in /  0mm 267.0 W/m2
17:02 85.3 °F /  29.6 °C 49.5 °F /  9.7 °C 29.80in /  1009hPa SE 2.9mph /  4.7km/h 8.0mph /  12.9km/h 29% 0.00in /  0mm 195.0 W/m2
17:07 85.5 °F /  29.7 °C 49.6 °F /  9.8 °C 29.80in /  1009hPa SSE 8.1mph /  13km/h 11.0mph /  17.7km/h 29% 0.00in /  0mm 158.0 W/m2
17:12 85.1 °F /  29.5 °C 49.3 °F /  9.6 °C 29.81in /  1009.4hPa East 4.9mph /  7.9km/h 11.0mph /  17.7km/h 29% 0.00in /  0mm 98.0 W/m2
17:17 84.7 °F /  29.3 °C 48.9 °F /  9.4 °C 29.81in /  1009.4hPa SE 2.9mph /  4.7km/h 5.0mph /  8km/h 29% 0.00in /  0mm 63.0 W/m2
17:23 84.4 °F /  29.1 °C 48.7 °F /  9.3 °C 29.81in /  1009.4hPa Calm   8.0mph /  12.9km/h 29% 0.00in /  0mm 53.0 W/m2
17:28 83.7 °F /  28.7 °C 47.1 °F /  8.4 °C 29.81in /  1009.4hPa ESE 4.9mph /  7.9km/h 10.0mph /  16.1km/h 28% 0.00in /  0mm 54.0 W/m2
17:34 83.5 °F /  28.6 °C 47.8 °F /  8.8 °C 29.81in /  1009.4hPa East 4.0mph /  6.4km/h 5.0mph /  8km/h 29% 0.00in /  0mm 62.0 W/m2
17:39 83.1 °F /  28.4 °C 47.7 °F /  8.7 °C 29.80in /  1009hPa Calm   5.0mph /  8km/h 29% 0.00in /  0mm 56.0 W/m2
17:44 83.1 °F /  28.4 °C 48.6 °F /  9.2 °C 29.80in /  1009hPa SE 0.9mph /  1.4km/h 3.0mph /  4.8km/h 30% 0.00in /  0mm 44.0 W/m2
17:49 82.9 °F /  28.3 °C 49.3 °F /  9.6 °C 29.80in /  1009hPa ESE 2.9mph /  4.7km/h 6.0mph /  9.7km/h 31% 0.00in /  0mm 33.0 W/m2
17:54 82.8 °F /  28.2 °C 49.1 °F /  9.5 °C 29.81in /  1009.4hPa SE 4.0mph /  6.4km/h 6.0mph /  9.7km/h 31% 0.00in /  0mm 26.0 W/m2
17:59 82.2 °F /  27.9 °C 49.5 °F /  9.7 °C 29.81in /  1009.4hPa SE 4.9mph /  7.9km/h 11.0mph /  17.7km/h 32% 0.00in /  0mm 21.0 W/m2
18:03 81.9 °F /  27.7 °C 48.2 °F /  9 °C 29.81in /  1009.4hPa ESE 0.9mph /  1.4km/h 8.0mph /  12.9km/h 31% 0.00in /  0mm 19.0 W/m2
18:08 81.7 °F /  27.6 °C 48.9 °F /  9.4 °C 29.81in /  1009.4hPa SE 0.9mph /  1.4km/h 6.0mph /  9.7km/h 32% 0.00in /  0mm 16.0 W/m2
18:13 81.3 °F /  27.4 °C 48.6 °F /  9.2 °C 29.81in /  1009.4hPa SE 0.9mph /  1.4km/h 5.0mph /  8km/h 32% 0.00in /  0mm 14.0 W/m2
18:19 81.1 °F /  27.3 °C 48.6 °F /  9.2 °C 29.81in /  1009.4hPa SE 4.0mph /  6.4km/h 4.0mph /  6.4km/h 32% 0.00in /  0mm 14.0 W/m2
18:24 81.0 °F /  27.2 °C 49.1 °F /  9.5 °C 29.81in /  1009.4hPa ESE 0.9mph /  1.4km/h 3.0mph /  4.8km/h 33% 0.00in /  0mm 16.0 W/m2
18:29 80.8 °F /  27.1 °C 48.9 °F /  9.4 °C 29.82in /  1009.7hPa Calm   2.0mph /  3.2km/h 33% 0.00in /  0mm 16.0 W/m2
18:34 80.8 °F /  27.1 °C 49.8 °F /  9.9 °C 29.82in /  1009.7hPa Calm   1.0mph /  1.6km/h 34% 0.00in /  0mm 12.0 W/m2
18:39 80.4 °F /  26.9 °C 49.5 °F /  9.7 °C 29.82in /  1009.7hPa Calm   1.0mph /  1.6km/h 34% 0.00in /  0mm 11.0 W/m2
18:44 80.2 °F /  26.8 °C 50.2 °F /  10.1 °C 29.82in /  1009.7hPa Calm   3.0mph /  4.8km/h 35% 0.00in /  0mm 9.0 W/m2
18:49 80.1 °F /  26.7 °C 50.0 °F /  10 °C 29.82in /  1009.7hPa Calm   1.0mph /  1.6km/h 35% 0.00in /  0mm 7.0 W/m2
18:54 79.9 °F /  26.6 °C 49.8 °F /  9.9 °C 29.82in /  1009.7hPa Calm     35% 0.00in /  0mm 0.0 W/m2
18:59 79.5 °F /  26.4 °C 49.5 °F /  9.7 °C 29.82in /  1009.7hPa Calm   1.0mph /  1.6km/h 35% 0.00in /  0mm 0.0 W/m2
19:05 79.2 °F /  26.2 °C 49.8 °F /  9.9 °C 29.82in /  1009.7hPa Calm   1.0mph /  1.6km/h 36% 0.00in /  0mm 0.0 W/m2
19:10 79.0 °F /  26.1 °C 50.5 °F /  10.3 °C 29.82in /  1009.7hPa Calm     37% 0.00in /  0mm 0.0 W/m2
19:15 78.4 °F /  25.8 °C 50.7 °F /  10.4 °C 29.82in /  1009.7hPa Calm     38% 0.00in /  0mm 0.0 W/m2
19:20 78.1 °F /  25.6 °C 51.1 °F /  10.6 °C 29.83in /  1010hPa Calm     39% 0.00in /  0mm 0.0 W/m2
19:25 77.5 °F /  25.3 °C 50.5 °F /  10.3 °C 29.83in /  1010hPa Calm   1.0mph /  1.6km/h 39% 0.00in /  0mm 0.0 W/m2
19:30 77.2 °F /  25.1 °C 51.6 °F /  10.9 °C 29.83in /  1010hPa Calm     41% 0.00in /  0mm 0.0 W/m2
19:36 76.8 °F /  24.9 °C 52.0 °F /  11.1 °C 29.83in /  1010hPa Calm     42% 0.00in /  0mm 0.0 W/m2
19:41 76.5 °F /  24.7 °C 51.6 °F /  10.9 °C 29.83in /  1010hPa Calm   1.0mph /  1.6km/h 42% 0.00in /  0mm 0.0 W/m2
19:46 76.3 °F /  24.6 °C 52.7 °F /  11.5 °C 29.84in /  1010.4hPa Calm     44% 0.00in /  0mm 0.0 W/m2
19:52 75.9 °F /  24.4 °C 51.8 °F /  11 °C 29.84in /  1010.4hPa Calm     43% 0.00in /  0mm 0.0 W/m2
19:58 75.7 °F /  24.3 °C 51.6 °F /  10.9 °C 29.85in /  1010.7hPa Calm   1.0mph /  1.6km/h 43% 0.00in /  0mm 0.0 W/m2
20:03 75.6 °F /  24.2 °C 50.9 °F /  10.5 °C 29.85in /  1010.7hPa ENE 2.0mph /  3.2km/h 2.0mph /  3.2km/h 42% 0.00in /  0mm 0.0 W/m2
20:08 75.6 °F /  24.2 °C 51.4 °F /  10.8 °C 29.85in /  1010.7hPa Calm     43% 0.00in /  0mm 0.0 W/m2
20:13 75.4 °F /  24.1 °C 51.3 °F /  10.7 °C 29.85in /  1010.7hPa Calm   1.0mph /  1.6km/h 43% 0.00in /  0mm 0.0 W/m2
20:18 75.4 °F /  24.1 °C 52.5 °F /  11.4 °C 29.85in /  1010.7hPa Calm     45% 0.00in /  0mm 0.0 W/m2
20:23 75.0 °F /  23.9 °C 51.6 °F /  10.9 °C 29.85in /  1010.7hPa Calm   1.0mph /  1.6km/h 44% 0.00in /  0mm 0.0 W/m2
20:28 75.0 °F /  23.9 °C 51.1 °F /  10.6 °C 29.86in /  1011.1hPa West 4.9mph /  7.9km/h 5.0mph /  8km/h 43% 0.00in /  0mm 0.0 W/m2
20:33 75.0 °F /  23.9 °C 51.1 °F /  10.6 °C 29.86in /  1011.1hPa WSW 0.9mph /  1.4km/h 3.0mph /  4.8km/h 43% 0.00in /  0mm 0.0 W/m2
20:38 74.8 °F /  23.8 °C 50.9 °F /  10.5 °C 29.86in /  1011.1hPa Calm   3.0mph /  4.8km/h 43% 0.00in /  0mm 0.0 W/m2
20:43 74.8 °F /  23.8 °C 50.9 °F /  10.5 °C 29.86in /  1011.1hPa WSW 0.9mph /  1.4km/h 4.0mph /  6.4km/h 43% 0.00in /  0mm 0.0 W/m2
20:48 74.8 °F /  23.8 °C 51.4 °F /  10.8 °C 29.87in /  1011.4hPa Calm   2.0mph /  3.2km/h 44% 0.00in /  0mm 0.0 W/m2
20:54 74.7 °F /  23.7 °C 51.3 °F /  10.7 °C 29.86in /  1011.1hPa Calm   1.0mph /  1.6km/h 44% 0.00in /  0mm 0.0 W/m2
20:59 74.7 °F /  23.7 °C 52.0 °F /  11.1 °C 29.86in /  1011.1hPa Calm     45% 0.00in /  0mm 0.0 W/m2
21:04 74.7 °F /  23.7 °C 52.0 °F /  11.1 °C 29.86in /  1011.1hPa Calm   1.0mph /  1.6km/h 45% 0.00in /  0mm 0.0 W/m2
21:09 74.5 °F /  23.6 °C 51.8 °F /  11 °C 29.86in /  1011.1hPa Calm     45% 0.00in /  0mm 0.0 W/m2
21:14 74.3 °F /  23.5 °C 52.2 °F /  11.2 °C 29.86in /  1011.1hPa Calm     46% 0.00in /  0mm 0.0 W/m2
21:19 74.1 °F /  23.4 °C 52.5 °F /  11.4 °C 29.86in /  1011.1hPa Calm   1.0mph /  1.6km/h 47% 0.00in /  0mm 0.0 W/m2
21:24 73.9 °F /  23.3 °C 52.5 °F /  11.4 °C 29.86in /  1011.1hPa SSE 0.9mph /  1.4km/h 3.0mph /  4.8km/h 47% 0.00in /  0mm 0.0 W/m2
21:29 73.9 °F /  23.3 °C 51.3 °F /  10.7 °C 29.86in /  1011.1hPa SE 0.9mph /  1.4km/h 2.0mph /  3.2km/h 45% 0.00in /  0mm 0.0 W/m2
21:35 73.8 °F /  23.2 °C 50.5 °F /  10.3 °C 29.86in /  1011.1hPa SE 0.9mph /  1.4km/h 5.0mph /  8km/h 44% 0.00in /  0mm 0.0 W/m2
21:40 73.8 °F /  23.2 °C 50.5 °F /  10.3 °C 29.86in /  1011.1hPa Calm   3.0mph /  4.8km/h 44% 0.00in /  0mm 0.0 W/m2
21:45 73.9 °F /  23.3 °C 50.0 °F /  10 °C 29.87in /  1011.4hPa Calm   2.0mph /  3.2km/h 43% 0.00in /  0mm 0.0 W/m2
21:50 73.9 °F /  23.3 °C 50.0 °F /  10 °C 29.87in /  1011.4hPa SSW 2.9mph /  4.7km/h 8.0mph /  12.9km/h 43% 0.00in /  0mm 0.0 W/m2
21:55 73.9 °F /  23.3 °C 50.0 °F /  10 °C 29.87in /  1011.4hPa Calm   2.0mph /  3.2km/h 43% 0.00in /  0mm 0.0 W/m2
22:00 73.8 °F /  23.2 °C 49.8 °F /  9.9 °C 29.86in /  1011.1hPa Calm   1.0mph /  1.6km/h 43% 0.00in /  0mm 0.0 W/m2
22:05 73.8 °F /  23.2 °C 50.5 °F /  10.3 °C 29.86in /  1011.1hPa Calm     44% 0.00in /  0mm 0.0 W/m2
22:10 73.6 °F /  23.1 °C 49.6 °F /  9.8 °C 29.87in /  1011.4hPa Calm     43% 0.00in /  0mm 0.0 W/m2
22:15 73.0 °F /  22.8 °C 50.4 °F /  10.2 °C 29.87in /  1011.4hPa Calm     45% 0.00in /  0mm 0.0 W/m2
22:20 72.9 °F /  22.7 °C 50.9 °F /  10.5 °C 29.87in /  1011.4hPa Calm     46% 0.00in /  0mm 0.0 W/m2
22:26 72.5 °F /  22.5 °C 51.1 °F /  10.6 °C 29.87in /  1011.4hPa Calm     47% 0.00in /  0mm 0.0 W/m2
22:31 72.1 °F /  22.3 °C 51.4 °F /  10.8 °C 29.87in /  1011.4hPa Calm     48% 0.00in /  0mm 0.0 W/m2
22:36 71.8 °F /  22.1 °C 51.6 °F /  10.9 °C 29.87in /  1011.4hPa Calm     49% 0.00in /  0mm 0.0 W/m2
22:41 71.4 °F /  21.9 °C 51.8 °F /  11 °C 29.87in /  1011.4hPa Calm     50% 0.00in /  0mm 0.0 W/m2
22:46 71.1 °F /  21.7 °C 52.0 °F /  11.1 °C 29.87in /  1011.4hPa Calm     51% 0.00in /  0mm 0.0 W/m2
22:51 70.5 °F /  21.4 °C 52.0 °F /  11.1 °C 29.87in /  1011.4hPa Calm     52% 0.00in /  0mm 0.0 W/m2
22:56 70.3 °F /  21.3 °C 52.3 °F /  11.3 °C 29.87in /  1011.4hPa Calm     53% 0.00in /  0mm 0.0 W/m2
23:01 70.0 °F /  21.1 °C 52.0 °F /  11.1 °C 29.87in /  1011.4hPa Calm     53% 0.00in /  0mm 0.0 W/m2
23:06 69.6 °F /  20.9 °C 52.2 °F /  11.2 °C 29.87in /  1011.4hPa Calm     54% 0.00in /  0mm 0.0 W/m2
23:11 69.4 °F /  20.8 °C 52.5 °F /  11.4 °C 29.87in /  1011.4hPa Calm     55% 0.00in /  0mm 0.0 W/m2
23:17 69.1 °F /  20.6 °C 52.2 °F /  11.2 °C 29.87in /  1011.4hPa Calm     55% 0.00in /  0mm 0.0 W/m2
23:22 68.9 °F /  20.5 °C 52.5 °F /  11.4 °C 29.87in /  1011.4hPa Calm     56% 0.00in /  0mm 0.0 W/m2
23:27 68.5 °F /  20.3 °C 52.7 °F /  11.5 °C 29.87in /  1011.4hPa Calm     57% 0.00in /  0mm 0.0 W/m2
23:34 68.2 °F /  20.1 °C 51.4 °F /  10.8 °C 29.88in /  1011.7hPa Calm     55% 0.00in /  0mm 0.0 W/m2
23:39 68.2 °F /  20.1 °C 51.8 °F /  11 °C 29.88in /  1011.7hPa Calm     56% 0.00in /  0mm 0.0 W/m2
23:44 67.8 °F /  19.9 °C 52.9 °F /  11.6 °C 29.87in /  1011.4hPa NE 2.0mph /  3.2km/h 3.0mph /  4.8km/h 59% 0.00in /  0mm 0.0 W/m2
23:50 67.8 °F /  19.9 °C 53.4 °F /  11.9 °C 29.88in /  1011.7hPa Calm   1.0mph /  1.6km/h 60% 0.00in /  0mm 0.0 W/m2
23:55 67.8 °F /  19.9 °C 53.4 °F /  11.9 °C 29.87in /  1011.4hPa Calm     60% 0.00in /  0mm 0.0 W/m2
Olympia, Windhoek, Namibia
Compliments of Weather Underground - 3.25 mb